sensor_id;sensor_type;location;lat;lon;timestamp;pressure;altitude;pressure_sealevel;temperature;humidity
29239;BME280;16267;48.194;11.546;2023-05-29T00:00:57;95950.94;;;15.26;53.57
29239;BME280;16267;48.194;11.546;2023-05-29T00:03:22;95952.16;;;15.25;53.60
29239;BME280;16267;48.194;11.546;2023-05-29T00:05:48;95948.44;;;15.18;53.87
29239;BME280;16267;48.194;11.546;2023-05-29T00:08:14;95949.31;;;15.15;53.81
29239;BME280;16267;48.194;11.546;2023-05-29T00:10:41;95945.97;;;15.11;53.86
29239;BME280;16267;48.194;11.546;2023-05-29T00:13:06;95944.47;;;15.10;53.77
29239;BME280;16267;48.194;11.546;2023-05-29T00:15:32;95957.31;;;15.06;53.83
29239;BME280;16267;48.194;11.546;2023-05-29T00:17:58;95947.69;;;15.05;53.89
29239;BME280;16267;48.194;11.546;2023-05-29T00:20:24;95952.00;;;15.03;53.99
29239;BME280;16267;48.194;11.546;2023-05-29T00:22:49;95945.94;;;14.99;53.86
29239;BME280;16267;48.194;11.546;2023-05-29T00:25:16;95947.53;;;14.96;53.91
29239;BME280;16267;48.194;11.546;2023-05-29T00:27:41;95945.28;;;14.94;53.80
29239;BME280;16267;48.194;11.546;2023-05-29T00:30:08;95947.66;;;14.92;53.85
29239;BME280;16267;48.194;11.546;2023-05-29T00:32:33;95941.16;;;14.90;53.84
29239;BME280;16267;48.194;11.546;2023-05-29T00:35:00;95938.91;;;14.88;53.66
29239;BME280;16267;48.194;11.546;2023-05-29T00:37:26;95942.78;;;14.87;54.00
29239;BME280;16267;48.194;11.546;2023-05-29T00:39:51;95942.13;;;14.83;54.77
29239;BME280;16267;48.194;11.546;2023-05-29T00:42:17;95939.09;;;14.81;54.67
29239;BME280;16267;48.194;11.546;2023-05-29T00:44:44;95936.50;;;14.78;55.05
29239;BME280;16267;48.194;11.546;2023-05-29T00:47:09;95939.63;;;14.76;54.74
29239;BME280;16267;48.194;11.546;2023-05-29T00:49:36;95941.66;;;14.72;54.82
29239;BME280;16267;48.194;11.546;2023-05-29T00:52:03;95942.09;;;14.70;54.76
29239;BME280;16267;48.194;11.546;2023-05-29T00:54:32;95939.16;;;14.65;55.49
29239;BME280;16267;48.194;11.546;2023-05-29T00:56:59;95940.75;;;14.62;55.34
29239;BME280;16267;48.194;11.546;2023-05-29T00:59:31;95943.56;;;14.59;55.42
29239;BME280;16267;48.194;11.546;2023-05-29T01:01:57;95943.22;;;14.57;55.51
29239;BME280;16267;48.194;11.546;2023-05-29T01:04:28;95946.78;;;14.54;55.43
29239;BME280;16267;48.194;11.546;2023-05-29T01:06:54;95942.56;;;14.53;55.20
29239;BME280;16267;48.194;11.546;2023-05-29T01:09:21;95948.03;;;14.49;55.50
29239;BME280;16267;48.194;11.546;2023-05-29T01:18:08;95944.09;;;14.37;56.71
29239;BME280;16267;48.194;11.546;2023-05-29T01:21:03;95950.44;;;14.31;56.68
29239;BME280;16267;48.194;11.546;2023-05-29T01:29:02;95947.91;;;14.23;56.50
29239;BME280;16267;48.194;11.546;2023-05-29T01:31:31;95942.97;;;14.22;56.58
29239;BME280;16267;48.194;11.546;2023-05-29T01:33:59;95951.88;;;14.19;56.66
29239;BME280;16267;48.194;11.546;2023-05-29T01:36:26;95948.53;;;14.15;56.97
29239;BME280;16267;48.194;11.546;2023-05-29T01:38:55;95947.44;;;14.12;57.47
29239;BME280;16267;48.194;11.546;2023-05-29T01:41:22;95945.16;;;14.11;56.87
29239;BME280;16267;48.194;11.546;2023-05-29T01:43:49;95952.91;;;14.09;56.81
29239;BME280;16267;48.194;11.546;2023-05-29T01:46:16;95949.88;;;14.06;56.92
29239;BME280;16267;48.194;11.546;2023-05-29T01:48:44;95951.13;;;14.02;57.74
29239;BME280;16267;48.194;11.546;2023-05-29T01:51:11;95945.84;;;13.98;58.17
29239;BME280;16267;48.194;11.546;2023-05-29T01:53:41;95947.88;;;13.94;58.08
29239;BME280;16267;48.194;11.546;2023-05-29T01:56:08;95947.94;;;13.91;58.48
29239;BME280;16267;48.194;11.546;2023-05-29T01:58:36;95947.28;;;13.87;58.01
29239;BME280;16267;48.194;11.546;2023-05-29T02:01:02;95952.34;;;13.84;58.50
29239;BME280;16267;48.194;11.546;2023-05-29T02:03:32;95949.72;;;13.81;58.26
29239;BME280;16267;48.194;11.546;2023-05-29T02:05:58;95950.91;;;13.80;57.86
29239;BME280;16267;48.194;11.546;2023-05-29T02:08:25;95951.31;;;13.78;57.83
29239;BME280;16267;48.194;11.546;2023-05-29T02:10:51;95952.53;;;13.77;57.94
29239;BME280;16267;48.194;11.546;2023-05-29T02:13:17;95950.22;;;13.76;57.72
29239;BME280;16267;48.194;11.546;2023-05-29T02:15:44;95954.13;;;13.75;57.50
29239;BME280;16267;48.194;11.546;2023-05-29T02:18:13;95949.56;;;13.72;57.77
29239;BME280;16267;48.194;11.546;2023-05-29T02:20:39;95946.09;;;13.71;57.59
29239;BME280;16267;48.194;11.546;2023-05-29T02:23:05;95939.59;;;13.69;57.81
29239;BME280;16267;48.194;11.546;2023-05-29T02:25:31;95935.81;;;13.66;58.75
29239;BME280;16267;48.194;11.546;2023-05-29T02:27:57;95935.88;;;13.63;58.87
29239;BME280;16267;48.194;11.546;2023-05-29T02:30:23;95937.84;;;13.62;58.35
29239;BME280;16267;48.194;11.546;2023-05-29T02:32:48;95940.19;;;13.60;58.32
29239;BME280;16267;48.194;11.546;2023-05-29T02:35:14;95936.81;;;13.56;59.29
29239;BME280;16267;48.194;11.546;2023-05-29T02:37:41;95945.00;;;13.52;59.50
29239;BME280;16267;48.194;11.546;2023-05-29T02:40:07;95944.66;;;13.50;59.56
29239;BME280;16267;48.194;11.546;2023-05-29T02:42:36;95941.28;;;13.46;59.62
29239;BME280;16267;48.194;11.546;2023-05-29T02:45:02;95937.91;;;13.42;60.10
29239;BME280;16267;48.194;11.546;2023-05-29T02:47:28;95938.75;;;13.39;60.36
29239;BME280;16267;48.194;11.546;2023-05-29T02:49:53;95944.97;;;13.36;60.49
29239;BME280;16267;48.194;11.546;2023-05-29T02:52:19;95945.78;;;13.33;60.75
29239;BME280;16267;48.194;11.546;2023-05-29T02:54:45;95949.31;;;13.30;60.77
29239;BME280;16267;48.194;11.546;2023-05-29T02:57:11;95946.31;;;13.28;60.19
29239;BME280;16267;48.194;11.546;2023-05-29T02:59:37;95952.09;;;13.26;59.81
29239;BME280;16267;48.194;11.546;2023-05-29T03:02:03;95949.03;;;13.24;59.63
29239;BME280;16267;48.194;11.546;2023-05-29T03:04:29;95944.81;;;13.23;59.50
29239;BME280;16267;48.194;11.546;2023-05-29T03:06:55;95951.41;;;13.22;59.59
29239;BME280;16267;48.194;11.546;2023-05-29T03:09:21;95951.41;;;13.22;59.31
29239;BME280;16267;48.194;11.546;2023-05-29T03:11:47;95951.06;;;13.20;59.19
29239;BME280;16267;48.194;11.546;2023-05-29T03:14:16;95947.59;;;13.20;59.55
29239;BME280;16267;48.194;11.546;2023-05-29T03:16:43;95948.00;;;13.18;59.56
29239;BME280;16267;48.194;11.546;2023-05-29T03:19:09;95951.16;;;13.16;60.19
29239;BME280;16267;48.194;11.546;2023-05-29T03:21:35;95954.25;;;13.15;60.10
29239;BME280;16267;48.194;11.546;2023-05-29T03:24:01;95947.34;;;13.14;60.09
29239;BME280;16267;48.194;11.546;2023-05-29T03:26:29;95945.06;;;13.12;60.48
29239;BME280;16267;48.194;11.546;2023-05-29T03:28:55;95948.94;;;13.11;60.19
29239;BME280;16267;48.194;11.546;2023-05-29T03:31:21;95946.25;;;13.11;60.64
29239;BME280;16267;48.194;11.546;2023-05-29T03:33:48;95947.84;;;13.09;60.94
29239;BME280;16267;48.194;11.546;2023-05-29T03:36:15;95953.63;;;13.07;60.57
29239;BME280;16267;48.194;11.546;2023-05-29T03:38:43;95952.13;;;13.06;60.69
29239;BME280;16267;48.194;11.546;2023-05-29T03:41:08;95955.22;;;13.05;61.50
29239;BME280;16267;48.194;11.546;2023-05-29T03:43:34;95961.44;;;13.02;61.82
29239;BME280;16267;48.194;11.546;2023-05-29T03:46:00;95963.03;;;12.99;62.36
29239;BME280;16267;48.194;11.546;2023-05-29T03:48:26;95963.84;;;12.96;62.42
29239;BME280;16267;48.194;11.546;2023-05-29T03:50:51;95963.84;;;12.96;62.32
29239;BME280;16267;48.194;11.546;2023-05-29T03:53:17;95963.84;;;12.96;62.40
29239;BME280;16267;48.194;11.546;2023-05-29T03:55:43;95965.44;;;12.93;62.73
29239;BME280;16267;48.194;11.546;2023-05-29T03:58:08;95962.00;;;12.93;63.16
29239;BME280;16267;48.194;11.546;2023-05-29T04:00:38;95971.25;;;12.92;62.94
29239;BME280;16267;48.194;11.546;2023-05-29T04:03:04;95969.31;;;12.92;62.75
29239;BME280;16267;48.194;11.546;2023-05-29T04:05:30;95970.84;;;12.93;62.12
29239;BME280;16267;48.194;11.546;2023-05-29T04:07:56;95973.53;;;12.93;61.91
29239;BME280;16267;48.194;11.546;2023-05-29T04:10:22;95966.56;;;12.96;62.60
29239;BME280;16267;48.194;11.546;2023-05-29T04:12:49;95968.84;;;12.98;63.20
29239;BME280;16267;48.194;11.546;2023-05-29T04:15:15;95967.31;;;12.97;63.72
29239;BME280;16267;48.194;11.546;2023-05-29T04:17:40;95978.44;;;12.99;63.22
29239;BME280;16267;48.194;11.546;2023-05-29T04:20:26;95985.34;;;13.00;64.02
29239;BME280;16267;48.194;11.546;2023-05-29T04:22:52;95986.88;;;13.01;64.81
29239;BME280;16267;48.194;11.546;2023-05-29T04:25:18;95993.75;;;13.02;64.60
29239;BME280;16267;48.194;11.546;2023-05-29T04:27:47;95991.81;;;13.02;64.27
29239;BME280;16267;48.194;11.546;2023-05-29T04:30:15;95993.72;;;13.05;63.72
29239;BME280;16267;48.194;11.546;2023-05-29T04:32:42;95995.56;;;13.08;63.73
29239;BME280;16267;48.194;11.546;2023-05-29T04:35:08;95999.38;;;13.11;64.50
29239;BME280;16267;48.194;11.546;2023-05-29T04:37:35;95995.06;;;13.13;64.54
29239;BME280;16267;48.194;11.546;2023-05-29T04:40:06;96002.34;;;13.16;63.84
29239;BME280;16267;48.194;11.546;2023-05-29T04:42:35;95996.88;;;13.20;64.15
29239;BME280;16267;48.194;11.546;2023-05-29T04:45:02;96002.63;;;13.22;65.29
29239;BME280;16267;48.194;11.546;2023-05-29T04:47:30;96000.63;;;13.26;64.52
29239;BME280;16267;48.194;11.546;2023-05-29T04:50:00;96012.09;;;13.30;64.98
29239;BME280;16267;48.194;11.546;2023-05-29T04:52:27;96010.06;;;13.34;65.32
29239;BME280;16267;48.194;11.546;2023-05-29T04:54:54;96009.25;;;13.37;65.16
29239;BME280;16267;48.194;11.546;2023-05-29T04:57:20;96013.38;;;13.42;65.62
29239;BME280;16267;48.194;11.546;2023-05-29T04:59:46;96014.06;;;13.46;66.43
29239;BME280;16267;48.194;11.546;2023-05-29T05:02:12;96019.41;;;13.50;66.41
29239;BME280;16267;48.194;11.546;2023-05-29T05:04:37;96013.84;;;13.57;66.08
29239;BME280;16267;48.194;11.546;2023-05-29T05:07:05;96012.59;;;13.61;65.93
29239;BME280;16267;48.194;11.546;2023-05-29T05:09:31;96009.41;;;13.67;67.01
29239;BME280;16267;48.194;11.546;2023-05-29T05:11:57;96011.59;;;13.72;67.00
29239;BME280;16267;48.194;11.546;2023-05-29T05:14:23;96010.75;;;13.75;66.67
29239;BME280;16267;48.194;11.546;2023-05-29T05:16:49;96014.03;;;13.82;66.07
29239;BME280;16267;48.194;11.546;2023-05-29T05:19:15;96010.84;;;13.88;66.18
29239;BME280;16267;48.194;11.546;2023-05-29T05:21:41;96008.75;;;13.95;65.07
29239;BME280;16267;48.194;11.546;2023-05-29T05:24:06;96014.75;;;14.03;64.83
29239;BME280;16267;48.194;11.546;2023-05-29T05:26:32;96011.44;;;14.12;65.46
29239;BME280;16267;48.194;11.546;2023-05-29T05:28:58;96016.66;;;14.19;65.51
29239;BME280;16267;48.194;11.546;2023-05-29T05:31:24;96016.41;;;14.29;64.63
29239;BME280;16267;48.194;11.546;2023-05-29T05:33:50;96017.34;;;14.39;65.35
29239;BME280;16267;48.194;11.546;2023-05-29T05:36:16;96016.31;;;14.49;65.46
29239;BME280;16267;48.194;11.546;2023-05-29T05:38:42;96022.22;;;14.61;64.94
29239;BME280;16267;48.194;11.546;2023-05-29T05:41:07;96023.47;;;14.72;64.69
29239;BME280;16267;48.194;11.546;2023-05-29T05:43:33;96023.50;;;14.85;64.66
29239;BME280;16267;48.194;11.546;2023-05-29T05:45:59;96032.84;;;14.97;64.74
29239;BME280;16267;48.194;11.546;2023-05-29T05:48:25;96023.25;;;15.09;65.00
29239;BME280;16267;48.194;11.546;2023-05-29T05:50:50;96030.75;;;15.17;62.23
29239;BME280;16267;48.194;11.546;2023-05-29T05:53:16;96029.25;;;15.29;62.36
29239;BME280;16267;48.194;11.546;2023-05-29T05:55:43;96028.09;;;15.43;62.31
29239;BME280;16267;48.194;11.546;2023-05-29T05:58:08;96030.41;;;15.57;62.43
29239;BME280;16267;48.194;11.546;2023-05-29T06:00:34;96036.16;;;15.72;60.84
29239;BME280;16267;48.194;11.546;2023-05-29T06:03:01;96034.53;;;15.88;60.12
29239;BME280;16267;48.194;11.546;2023-05-29T06:05:29;96029.47;;;16.02;59.74
29239;BME280;16267;48.194;11.546;2023-05-29T06:07:55;96036.03;;;16.14;59.83
29239;BME280;16267;48.194;11.546;2023-05-29T06:10:21;96040.25;;;16.28;59.82
29239;BME280;16267;48.194;11.546;2023-05-29T06:12:47;96035.38;;;16.36;58.88
29239;BME280;16267;48.194;11.546;2023-05-29T06:15:13;96030.34;;;16.47;58.98
29239;BME280;16267;48.194;11.546;2023-05-29T06:17:39;96033.03;;;16.60;58.67
29239;BME280;16267;48.194;11.546;2023-05-29T06:20:06;96035.50;;;16.67;57.56
29239;BME280;16267;48.194;11.546;2023-05-29T06:22:39;96040.25;;;16.76;57.57
29239;BME280;16267;48.194;11.546;2023-05-29T06:25:05;96036.88;;;16.84;57.06
29239;BME280;16267;48.194;11.546;2023-05-29T06:27:31;96035.00;;;16.94;57.33
29239;BME280;16267;48.194;11.546;2023-05-29T06:29:57;96027.06;;;17.00;56.21
29239;BME280;16267;48.194;11.546;2023-05-29T06:32:26;96043.38;;;17.09;56.93
29239;BME280;16267;48.194;11.546;2023-05-29T06:34:53;96035.63;;;17.20;56.72
29239;BME280;16267;48.194;11.546;2023-05-29T06:37:19;96038.09;;;17.27;55.62
29239;BME280;16267;48.194;11.546;2023-05-29T06:39:45;96044.78;;;17.35;56.02
29239;BME280;16267;48.194;11.546;2023-05-29T06:42:11;96040.84;;;17.36;54.14
29239;BME280;16267;48.194;11.546;2023-05-29T06:44:37;96045.16;;;17.47;55.55
29239;BME280;16267;48.194;11.546;2023-05-29T06:47:05;96046.69;;;17.57;55.81
29239;BME280;16267;48.194;11.546;2023-05-29T06:49:31;96052.94;;;17.67;55.61
29239;BME280;16267;48.194;11.546;2023-05-29T06:51:57;96049.97;;;17.74;55.10
29239;BME280;16267;48.194;11.546;2023-05-29T06:54:23;96052.44;;;17.81;55.29
29239;BME280;16267;48.194;11.546;2023-05-29T06:56:49;96053.22;;;17.91;54.34
29239;BME280;16267;48.194;11.546;2023-05-29T06:59:15;96054.47;;;17.99;54.20
29239;BME280;16267;48.194;11.546;2023-05-29T07:01:41;96056.16;;;18.05;52.70
29239;BME280;16267;48.194;11.546;2023-05-29T07:04:06;96059.34;;;18.13;52.63
29239;BME280;16267;48.194;11.546;2023-05-29T07:06:33;96053.63;;;18.20;52.99
29239;BME280;16267;48.194;11.546;2023-05-29T07:08:59;96055.63;;;18.29;53.10
29239;BME280;16267;48.194;11.546;2023-05-29T07:11:25;96057.59;;;18.38;53.08
29239;BME280;16267;48.194;11.546;2023-05-29T07:13:53;96064.28;;;18.46;52.27
29239;BME280;16267;48.194;11.546;2023-05-29T07:16:19;96067.75;;;18.56;52.04
29239;BME280;16267;48.194;11.546;2023-05-29T07:18:45;96070.63;;;18.61;52.26
29239;BME280;16267;48.194;11.546;2023-05-29T07:21:10;96060.53;;;18.71;52.31
29239;BME280;16267;48.194;11.546;2023-05-29T07:23:37;96072.94;;;18.81;52.69
29239;BME280;16267;48.194;11.546;2023-05-29T07:26:03;96067.53;;;18.90;52.26
29239;BME280;16267;48.194;11.546;2023-05-29T07:28:29;96071.47;;;18.99;52.30
29239;BME280;16267;48.194;11.546;2023-05-29T07:30:54;96074.91;;;19.08;51.74
29239;BME280;16267;48.194;11.546;2023-05-29T07:33:20;96081.56;;;19.16;51.39
29239;BME280;16267;48.194;11.546;2023-05-29T07:35:46;96082.03;;;19.24;51.16
29239;BME280;16267;48.194;11.546;2023-05-29T07:38:12;96072.34;;;19.32;51.69
29239;BME280;16267;48.194;11.546;2023-05-29T07:40:37;96077.47;;;19.39;51.40
29239;BME280;16267;48.194;11.546;2023-05-29T07:43:03;96076.72;;;19.48;50.92
29239;BME280;16267;48.194;11.546;2023-05-29T07:45:29;96074.88;;;19.54;51.09
29239;BME280;16267;48.194;11.546;2023-05-29T07:47:55;96072.59;;;19.62;51.11
29239;BME280;16267;48.194;11.546;2023-05-29T07:50:20;96077.75;;;19.69;50.91
29239;BME280;16267;48.194;11.546;2023-05-29T07:52:46;96073.94;;;19.76;50.16
29239;BME280;16267;48.194;11.546;2023-05-29T07:55:12;96082.41;;;19.78;49.80
29239;BME280;16267;48.194;11.546;2023-05-29T07:57:37;96078.75;;;19.81;49.37
29239;BME280;16267;48.194;11.546;2023-05-29T08:00:05;96076.94;;;19.87;49.66
29239;BME280;16267;48.194;11.546;2023-05-29T08:02:32;96087.50;;;19.94;49.44
29239;BME280;16267;48.194;11.546;2023-05-29T08:04:58;96084.91;;;20.00;50.11
29239;BME280;16267;48.194;11.546;2023-05-29T08:07:24;96078.38;;;20.07;49.79
29239;BME280;16267;48.194;11.546;2023-05-29T08:09:49;96090.47;;;20.15;49.97
29239;BME280;16267;48.194;11.546;2023-05-29T08:12:15;96087.38;;;20.22;49.75
29239;BME280;16267;48.194;11.546;2023-05-29T08:14:41;96081.31;;;20.27;49.41
29239;BME280;16267;48.194;11.546;2023-05-29T08:17:06;96081.44;;;20.33;49.18
29239;BME280;16267;48.194;11.546;2023-05-29T08:19:32;96087.31;;;20.40;49.56
29239;BME280;16267;48.194;11.546;2023-05-29T08:21:58;96088.19;;;20.46;48.73
29239;BME280;16267;48.194;11.546;2023-05-29T08:24:24;96079.69;;;20.54;48.97
29239;BME280;16267;48.194;11.546;2023-05-29T08:26:49;96078.59;;;20.60;49.05
29239;BME280;16267;48.194;11.546;2023-05-29T08:29:15;96075.97;;;20.66;48.47
29239;BME280;16267;48.194;11.546;2023-05-29T08:31:41;96080.31;;;20.72;48.59
29239;BME280;16267;48.194;11.546;2023-05-29T08:34:06;96080.63;;;20.75;48.48
29239;BME280;16267;48.194;11.546;2023-05-29T08:36:33;96082.72;;;20.80;48.75
29239;BME280;16267;48.194;11.546;2023-05-29T08:39:00;96083.88;;;20.88;47.80
29239;BME280;16267;48.194;11.546;2023-05-29T08:42:07;96086.06;;;20.99;47.48
29239;BME280;16267;48.194;11.546;2023-05-29T08:44:33;96077.22;;;21.04;47.05
29239;BME280;16267;48.194;11.546;2023-05-29T08:47:07;96075.66;;;21.12;47.51
29239;BME280;16267;48.194;11.546;2023-05-29T08:49:43;96071.78;;;21.19;47.24
29239;BME280;16267;48.194;11.546;2023-05-29T08:52:17;96071.72;;;21.28;47.90
29239;BME280;16267;48.194;11.546;2023-05-29T08:54:44;96071.34;;;21.35;47.71
29239;BME280;16267;48.194;11.546;2023-05-29T08:57:11;96079.19;;;21.42;47.07
29239;BME280;16267;48.194;11.546;2023-05-29T08:59:41;96082.78;;;21.48;46.53
29239;BME280;16267;48.194;11.546;2023-05-29T09:02:09;96074.22;;;21.55;46.39
29239;BME280;16267;48.194;11.546;2023-05-29T09:04:36;96081.00;;;21.60;46.29
29239;BME280;16267;48.194;11.546;2023-05-29T09:07:01;96078.81;;;21.64;46.34
29239;BME280;16267;48.194;11.546;2023-05-29T09:09:29;96078.44;;;21.71;46.85
29239;BME280;16267;48.194;11.546;2023-05-29T09:11:57;96076.56;;;21.77;46.23
29239;BME280;16267;48.194;11.546;2023-05-29T09:14:50;96082.69;;;21.87;46.23
29239;BME280;16267;48.194;11.546;2023-05-29T09:17:16;96082.28;;;21.94;46.29
29239;BME280;16267;48.194;11.546;2023-05-29T09:19:42;96073.72;;;22.01;45.32
29239;BME280;16267;48.194;11.546;2023-05-29T09:22:10;96070.31;;;22.07;45.75
29239;BME280;16267;48.194;11.546;2023-05-29T09:24:39;96072.19;;;22.15;45.77
29239;BME280;16267;48.194;11.546;2023-05-29T09:27:05;96075.31;;;22.23;45.28
29239;BME280;16267;48.194;11.546;2023-05-29T09:29:44;96070.69;;;22.29;45.24
29239;BME280;16267;48.194;11.546;2023-05-29T09:32:16;96076.97;;;22.35;44.48
29239;BME280;16267;48.194;11.546;2023-05-29T09:34:43;96076.22;;;22.35;43.07
29239;BME280;16267;48.194;11.546;2023-05-29T09:37:10;96072.47;;;22.32;42.41
29239;BME280;16267;48.194;11.546;2023-05-29T09:39:51;96082.06;;;22.42;42.95
29239;BME280;16267;48.194;11.546;2023-05-29T09:42:17;96071.88;;;22.43;44.13
29239;BME280;16267;48.194;11.546;2023-05-29T09:44:48;96071.19;;;22.48;43.43
29239;BME280;16267;48.194;11.546;2023-05-29T09:47:17;96077.19;;;22.52;42.54
29239;BME280;16267;48.194;11.546;2023-05-29T09:49:45;96074.31;;;22.61;42.12
29239;BME280;16267;48.194;11.546;2023-05-29T09:52:14;96077.56;;;22.60;41.30
29239;BME280;16267;48.194;11.546;2023-05-29T09:54:44;96075.16;;;22.67;41.87
29239;BME280;16267;48.194;11.546;2023-05-29T09:57:15;96085.50;;;22.78;41.98
29239;BME280;16267;48.194;11.546;2023-05-29T09:59:43;96075.38;;;22.84;41.59
29239;BME280;16267;48.194;11.546;2023-05-29T10:02:17;96075.72;;;22.92;40.13
29239;BME280;16267;48.194;11.546;2023-05-29T10:04:43;96078.06;;;22.99;40.45
29239;BME280;16267;48.194;11.546;2023-05-29T10:07:28;96068.69;;;23.06;40.06
29239;BME280;16267;48.194;11.546;2023-05-29T10:10:05;96074.22;;;23.11;38.97
29239;BME280;16267;48.194;11.546;2023-05-29T10:12:36;96076.00;;;23.14;38.92
29239;BME280;16267;48.194;11.546;2023-05-29T10:15:13;96077.56;;;23.21;38.71
29239;BME280;16267;48.194;11.546;2023-05-29T10:17:57;96072.13;;;23.27;38.04
29239;BME280;16267;48.194;11.546;2023-05-29T10:20:26;96063.00;;;23.35;38.58
29239;BME280;16267;48.194;11.546;2023-05-29T10:22:56;96057.34;;;23.39;38.93
29239;BME280;16267;48.194;11.546;2023-05-29T10:25:23;96058.84;;;23.40;38.49
29239;BME280;16267;48.194;11.546;2023-05-29T10:27:50;96062.09;;;23.44;37.93
29239;BME280;16267;48.194;11.546;2023-05-29T10:36:20;96067.94;;;23.57;38.35
29239;BME280;16267;48.194;11.546;2023-05-29T10:38:48;96066.78;;;23.64;37.96
29239;BME280;16267;48.194;11.546;2023-05-29T10:44:02;96068.16;;;23.80;37.20
29239;BME280;16267;48.194;11.546;2023-05-29T10:49:21;96057.56;;;23.93;37.13
29239;BME280;16267;48.194;11.546;2023-05-29T10:51:48;96054.59;;;23.97;36.84
29239;BME280;16267;48.194;11.546;2023-05-29T10:54:15;96056.38;;;24.00;37.23
29239;BME280;16267;48.194;11.546;2023-05-29T10:56:44;96052.66;;;24.03;36.88
29239;BME280;16267;48.194;11.546;2023-05-29T10:59:18;96057.22;;;24.12;36.89
29239;BME280;16267;48.194;11.546;2023-05-29T11:01:44;96053.25;;;24.18;36.29
29239;BME280;16267;48.194;11.546;2023-05-29T11:04:30;96057.78;;;24.27;36.09
29239;BME280;16267;48.194;11.546;2023-05-29T11:06:58;96060.59;;;24.38;36.38
29239;BME280;16267;48.194;11.546;2023-05-29T11:09:38;96060.69;;;24.49;35.94
29239;BME280;16267;48.194;11.546;2023-05-29T11:12:24;96056.13;;;24.41;35.01
29239;BME280;16267;48.194;11.546;2023-05-29T11:15:10;96058.00;;;24.61;35.59
29239;BME280;16267;48.194;11.546;2023-05-29T11:17:42;96061.25;;;24.59;35.70
29239;BME280;16267;48.194;11.546;2023-05-29T11:20:42;96057.53;;;24.62;35.48
29239;BME280;16267;48.194;11.546;2023-05-29T11:23:15;96058.78;;;24.67;35.76
29239;BME280;16267;48.194;11.546;2023-05-29T11:25:44;96056.28;;;24.69;35.02
29239;BME280;16267;48.194;11.546;2023-05-29T11:28:11;96053.81;;;24.71;35.01
29239;BME280;16267;48.194;11.546;2023-05-29T11:30:48;96051.78;;;24.66;34.69
29239;BME280;16267;48.194;11.546;2023-05-29T11:33:23;96054.06;;;24.67;34.47
29239;BME280;16267;48.194;11.546;2023-05-29T11:35:59;96056.06;;;24.67;35.18
29239;BME280;16267;48.194;11.546;2023-05-29T11:38:27;96062.53;;;24.64;34.44
29239;BME280;16267;48.194;11.546;2023-05-29T11:40:56;96048.03;;;24.63;34.59
29239;BME280;16267;48.194;11.546;2023-05-29T11:43:24;96052.28;;;24.64;35.32
29239;BME280;16267;48.194;11.546;2023-05-29T11:45:50;96063.25;;;24.59;34.80
29239;BME280;16267;48.194;11.546;2023-05-29T11:48:16;96062.72;;;24.55;34.96
29239;BME280;16267;48.194;11.546;2023-05-29T11:50:42;96055.22;;;24.55;35.07
29239;BME280;16267;48.194;11.546;2023-05-29T11:53:09;96052.03;;;24.62;35.21
29239;BME280;16267;48.194;11.546;2023-05-29T11:55:36;96056.56;;;24.71;34.95
29239;BME280;16267;48.194;11.546;2023-05-29T11:58:03;96053.34;;;24.78;34.62
29239;BME280;16267;48.194;11.546;2023-05-29T12:00:37;96056.63;;;24.88;34.89
29239;BME280;16267;48.194;11.546;2023-05-29T12:03:05;96058.16;;;24.95;34.41
29239;BME280;16267;48.194;11.546;2023-05-29T12:05:47;96058.63;;;24.87;33.71
29239;BME280;16267;48.194;11.546;2023-05-29T12:08:24;96058.63;;;24.87;33.99
29239;BME280;16267;48.194;11.546;2023-05-29T12:10:52;96058.13;;;24.89;33.79
29239;BME280;16267;48.194;11.546;2023-05-29T12:13:22;96056.88;;;24.90;34.33
29239;BME280;16267;48.194;11.546;2023-05-29T12:15:53;96052.66;;;24.95;34.41
29239;BME280;16267;48.194;11.546;2023-05-29T12:18:20;96050.91;;;24.91;33.85
29239;BME280;16267;48.194;11.546;2023-05-29T12:20:46;96052.13;;;24.90;33.28
29239;BME280;16267;48.194;11.546;2023-05-29T12:23:12;96043.91;;;24.90;32.97
29239;BME280;16267;48.194;11.546;2023-05-29T12:25:38;96043.91;;;24.90;33.20
29239;BME280;16267;48.194;11.546;2023-05-29T12:28:04;96047.63;;;24.87;33.42
29239;BME280;16267;48.194;11.546;2023-05-29T12:30:36;96052.38;;;24.81;33.61
29239;BME280;16267;48.194;11.546;2023-05-29T12:33:02;96043.13;;;24.79;33.16
29239;BME280;16267;48.194;11.546;2023-05-29T12:35:28;96050.06;;;24.74;32.80
29239;BME280;16267;48.194;11.546;2023-05-29T12:37:59;96043.09;;;24.73;33.22
29239;BME280;16267;48.194;11.546;2023-05-29T12:40:30;96040.84;;;24.71;33.04
29239;BME280;16267;48.194;11.546;2023-05-29T12:43:01;96042.56;;;24.69;33.15
29239;BME280;16267;48.194;11.546;2023-05-29T12:45:30;96040.09;;;24.71;33.77
29239;BME280;16267;48.194;11.546;2023-05-29T12:48:00;96046.09;;;24.69;34.01
29239;BME280;16267;48.194;11.546;2023-05-29T12:50:34;96052.06;;;24.68;34.17
29239;BME280;16267;48.194;11.546;2023-05-29T12:53:03;96049.03;;;24.66;33.05
29239;BME280;16267;48.194;11.546;2023-05-29T12:55:37;96054.78;;;24.62;32.72
29239;BME280;16267;48.194;11.546;2023-05-29T12:58:11;96054.50;;;24.60;31.69
29239;BME280;16267;48.194;11.546;2023-05-29T13:00:41;96051.53;;;24.58;32.16
29239;BME280;16267;48.194;11.546;2023-05-29T13:03:08;96037.81;;;24.58;32.01
29239;BME280;16267;48.194;11.546;2023-05-29T13:05:34;96045.78;;;24.56;32.60
29239;BME280;16267;48.194;11.546;2023-05-29T13:08:00;96049.00;;;24.55;31.87
29239;BME280;16267;48.194;11.546;2023-05-29T13:10:27;96049.00;;;24.55;32.04
29239;BME280;16267;48.194;11.546;2023-05-29T13:12:54;96043.25;;;24.53;31.33
29239;BME280;16267;48.194;11.546;2023-05-29T13:15:24;96035.03;;;24.53;31.85
29239;BME280;16267;48.194;11.546;2023-05-29T13:17:51;96042.50;;;24.52;32.13